Terminal Aerodrome Forecast
Issued by NWS

Home | Current Version | Previous Version | Text Only | Print | Product List | Glossary On
Versions: 1 2 3 4 5 6 7 8 9 10 11 12 13 14 15 16
000
FTUS44 KLIX 021700
TAFGPT
TAF
KGPT 021738Z 0218/0318 12006KT 1SM BR OVC003
      TEMPO 0218/0222 1/4SM FG VV002
     FM030200 16003KT 1/4SM FG OVC002
     FM031600 16009KT P6SM BKN003=

USA.gov is the U.S. government's official web portal to all federal, state and local government web resources and services.